Time;durP1;ratioP1;P1;durP2;ratioP2;P2;SDS_P1;SDS_P2;PMS_P1;PMS_P2;Temp;Humidity;BMP_temperature;BMP_pressure;BME280_temperature;BME280_humidity;BME280_pressure;Samples;Min_cycle;Max_cycle;Signal;HPM_P1;HPM_P2
2022/06/21 00:01:19;;;;;;;0.00;0.00;;;21.20;60.70;;;;;;4196195;28;20098;-68
2022/06/21 00:03:42;;;;;;;0.00;0.00;;;21.10;60.70;;;;;;4197722;27;20052;-69
2022/06/21 00:06:04;;;;;;;0.63;0.43;;;21.10;60.70;;;;;;4197837;27;20051;-69
2022/06/21 00:08:31;;;;;;;0.00;0.00;;;21.10;60.80;;;;;;4197700;28;20041;-69
2022/06/21 00:10:54;;;;;;;0.00;0.00;;;21.10;60.80;;;;;;4197455;27;20041;-68
2022/06/21 00:13:19;;;;;;;0.00;0.00;;;21.10;60.80;;;;;;4180809;28;20051;-69
2022/06/21 00:15:42;;;;;;;0.00;0.00;;;21.10;60.90;;;;;;4148490;28;20057;-69
2022/06/21 00:18:06;;;;;;;0.00;0.00;;;21.10;60.90;;;;;;4148449;28;20488;-68
2022/06/21 00:20:28;;;;;;;0.15;0.15;;;21.10;60.90;;;;;;4165281;28;20554;-69
2022/06/21 00:22:50;;;;;;;0.00;0.00;;;21.10;60.90;;;;;;4197834;27;20059;-67
2022/06/21 00:25:19;;;;;;;0.08;0.08;;;21.10;60.90;;;;;;4197327;27;20056;-68
2022/06/21 00:27:40;;;;;;;0.00;0.00;;;21.00;60.90;;;;;;4197436;27;20044;-68
2022/06/21 00:30:03;;;;;;;1.27;1.17;;;21.10;61.00;;;;;;4197151;27;20098;-64
2022/06/21 00:32:25;;;;;;;0.00;0.00;;;21.10;61.10;;;;;;4195887;28;20060;-69
2022/06/21 00:34:48;;;;;;;0.00;0.00;;;21.10;61.10;;;;;;4197006;27;20048;-67
2022/06/21 00:37:15;;;;;;;0.00;0.00;;;21.10;61.10;;;;;;4197547;27;20051;-70
2022/06/21 00:39:36;;;;;;;0.00;0.00;;;21.10;61.20;;;;;;4197246;28;20071;-68
2022/06/21 00:42:04;;;;;;;0.30;0.30;;;21.10;61.20;;;;;;4197403;27;20063;-69
2022/06/21 00:44:33;;;;;;;0.00;0.00;;;21.10;61.30;;;;;;4193859;27;20079;-70
2022/06/21 00:47:02;;;;;;;0.00;0.00;;;21.00;61.20;;;;;;4196735;27;20131;-67
2022/06/21 00:49:27;;;;;;;0.00;0.00;;;21.10;61.30;;;;;;4197179;27;20044;-70
2022/06/21 00:51:52;;;;;;;0.00;0.00;;;21.10;61.30;;;;;;4197205;27;20487;-70
2022/06/21 00:54:19;;;;;;;0.00;0.00;;;21.00;61.40;;;;;;4197327;28;20051;-69
2022/06/21 00:56:47;;;;;;;0.00;0.00;;;21.00;61.30;;;;;;4197084;27;20074;-69
2022/06/21 00:59:25;;;;;;;0.00;0.00;;;21.00;61.40;;;;;;4193318;28;20055;-69
2022/06/21 01:01:48;;;;;;;0.00;0.00;;;21.10;61.40;;;;;;4193706;28;20047;-70
2022/06/21 01:04:15;;;;;;;0.00;0.00;;;21.00;61.30;;;;;;4194317;28;20040;-70
2022/06/21 01:06:41;;;;;;;0.00;0.00;;;21.00;61.30;;;;;;4194465;28;20602;-70
2022/06/21 01:09:07;;;;;;;0.75;0.75;;;21.00;61.30;;;;;;4194963;28;20195;-70
2022/06/21 01:11:33;;;;;;;0.00;0.00;;;21.00;61.30;;;;;;4193070;28;20543;-69
2022/06/21 01:13:58;;;;;;;0.10;0.10;;;21.00;61.30;;;;;;4161063;28;20100;-69
2022/06/21 01:16:24;;;;;;;0.47;0.45;;;21.00;61.30;;;;;;4161314;28;20103;-69
2022/06/21 01:18:48;;;;;;;7.03;2.10;;;21.00;61.30;;;;;;4161272;28;20492;-69
2022/06/21 01:21:12;;;;;;;0.00;0.00;;;21.00;61.30;;;;;;4179222;28;20106;-69
2022/06/21 01:23:47;;;;;;;0.00;0.00;;;21.00;61.30;;;;;;4194317;28;20127;-69
2022/06/21 01:26:29;;;;;;;1.77;1.65;;;21.00;61.40;;;;;;4194071;28;20052;-69
2022/06/21 01:28:52;;;;;;;0.00;0.00;;;21.00;61.30;;;;;;4193857;28;20103;-69
2022/06/21 01:31:14;;;;;;;0.80;0.60;;;21.00;61.50;;;;;;4194235;28;20044;-69
2022/06/21 01:33:40;;;;;;;0.00;0.00;;;21.00;62.30;;;;;;4194160;28;20170;-69
2022/06/21 01:36:05;;;;;;;0.00;0.00;;;21.00;61.50;;;;;;4194045;28;20133;-68
2022/06/21 01:38:31;;;;;;;0.00;0.00;;;20.90;61.50;;;;;;4194482;28;20475;-68
2022/06/21 01:41:05;;;;;;;0.00;0.00;;;21.00;61.50;;;;;;4193316;28;20148;-68
2022/06/21 01:43:29;;;;;;;0.00;0.00;;;21.00;61.50;;;;;;4193942;28;20105;-68
2022/06/21 01:45:56;;;;;;;0.00;0.00;;;21.00;61.50;;;;;;4193515;28;20047;-69
2022/06/21 01:48:23;;;;;;;0.00;0.00;;;21.00;61.60;;;;;;4193522;28;20070;-69
2022/06/21 01:50:48;;;;;;;0.20;0.20;;;21.00;61.50;;;;;;4193508;28;20057;-67
2022/06/21 01:53:12;;;;;;;0.00;0.00;;;21.00;61.60;;;;;;4161160;28;20049;-68
2022/06/21 01:55:39;;;;;;;0.00;0.00;;;21.00;61.60;;;;;;4160707;28;20409;-68
2022/06/21 01:58:06;;;;;;;0.00;0.00;;;20.90;61.50;;;;;;4160530;28;20077;-68
2022/06/21 02:00:32;;;;;;;0.00;0.00;;;20.90;61.50;;;;;;4160912;28;20526;-69
2022/06/21 02:02:58;;;;;;;0.60;0.60;;;20.90;61.60;;;;;;4169274;28;20061;-69
2022/06/21 02:05:26;;;;;;;0.00;0.00;;;20.90;61.60;;;;;;4159243;28;20049;-68
2022/06/21 02:07:53;;;;;;;0.00;0.00;;;20.90;61.70;;;;;;4160562;28;20065;-69
2022/06/21 02:10:23;;;;;;;0.00;0.00;;;20.90;61.60;;;;;;4159538;28;20115;-69
2022/06/21 02:12:50;;;;;;;0.38;0.38;;;20.90;61.70;;;;;;4187568;28;20052;-69
2022/06/21 02:15:22;;;;;;;0.00;0.00;;;20.90;61.70;;;;;;4160229;28;20060;-69
2022/06/21 02:17:47;;;;;;;0.00;0.00;;;20.90;61.70;;;;;;4181783;28;20487;-69
2022/06/21 02:20:19;;;;;;;0.00;0.00;;;20.90;61.80;;;;;;4193428;28;20059;-69
2022/06/21 02:22:42;;;;;;;0.00;0.00;;;20.90;61.80;;;;;;4191660;28;20056;-69
2022/06/21 02:25:05;;;;;;;0.00;0.00;;;20.80;61.70;;;;;;4193392;28;20650;-68
2022/06/21 02:27:31;;;;;;;0.00;0.00;;;20.90;61.80;;;;;;4193274;28;20135;-68
2022/06/21 02:29:56;;;;;;;0.00;0.00;;;20.80;61.70;;;;;;4193305;28;20052;-68
2022/06/21 02:32:24;;;;;;;0.00;0.00;;;20.80;61.80;;;;;;4192871;28;20045;-69
2022/06/21 02:34:50;;;;;;;0.00;0.00;;;20.80;61.80;;;;;;4192985;28;20121;-68
2022/06/21 02:37:15;;;;;;;0.00;0.00;;;20.80;61.80;;;;;;4193339;28;20135;-68
2022/06/21 02:39:37;;;;;;;0.00;0.00;;;20.80;61.80;;;;;;4193078;28;20047;-68
2022/06/21 02:42:05;;;;;;;0.00;0.00;;;20.80;61.90;;;;;;4192980;28;20125;-68
2022/06/21 02:44:31;;;;;;;0.00;0.00;;;20.80;61.90;;;;;;4192817;28;20049;-68
2022/06/21 02:46:56;;;;;;;0.00;0.00;;;20.80;62.00;;;;;;4192119;28;20445;-69
2022/06/21 02:49:23;;;;;;;0.25;0.10;;;20.80;61.90;;;;;;4193179;28;20140;-69
2022/06/21 02:51:52;;;;;;;0.00;0.00;;;20.80;61.90;;;;;;4191913;28;20137;-67
2022/06/21 02:54:21;;;;;;;0.00;0.00;;;20.80;61.90;;;;;;4193090;28;20472;-68
2022/06/21 02:56:47;;;;;;;0.22;0.22;;;20.80;62.00;;;;;;4192882;28;20143;-68
2022/06/21 02:59:11;;;;;;;0.00;0.00;;;20.80;62.00;;;;;;4192481;28;20110;-68
2022/06/21 03:01:38;;;;;;;0.00;0.00;;;20.80;62.90;;;;;;4192280;28;20097;-68
2022/06/21 03:04:00;;;;;;;0.45;0.45;;;20.70;61.90;;;;;;4192571;28;20117;-69
2022/06/21 03:06:24;;;;;;;0.00;0.00;;;20.70;62.00;;;;;;4192929;28;20040;-69
2022/06/21 03:08:52;;;;;;;0.00;0.00;;;20.70;62.00;;;;;;4192527;28;20052;-69
2022/06/21 03:11:14;;;;;;;0.00;0.00;;;20.70;62.00;;;;;;4192412;28;20101;-69
2022/06/21 03:13:37;;;;;;;0.00;0.00;;;20.70;61.90;;;;;;4193165;28;20101;-69
2022/06/21 03:16:02;;;;;;;0.00;0.00;;;20.70;62.80;;;;;;4193028;28;20121;-69
2022/06/21 03:18:28;;;;;;;0.00;0.00;;;20.70;62.00;;;;;;4192794;28;20059;-69
2022/06/21 03:20:51;;;;;;;0.00;0.00;;;20.70;62.10;;;;;;4159305;28;20045;-68
2022/06/21 03:23:15;;;;;;;0.00;0.00;;;20.70;62.10;;;;;;4158883;28;20111;-70
2022/06/21 03:25:43;;;;;;;0.00;0.00;;;20.70;62.10;;;;;;4159474;28;20076;-70
2022/06/21 03:28:23;;;;;;;0.00;0.00;;;20.70;62.10;;;;;;4159252;28;20045;-69
2022/06/21 03:30:45;;;;;;;0.10;0.10;;;20.70;62.10;;;;;;4159385;28;20461;-69
2022/06/21 03:33:07;;;;;;;0.00;0.00;;;20.70;62.10;;;;;;4187109;28;20174;-69
2022/06/21 03:35:32;;;;;;;0.00;0.00;;;20.60;62.00;;;;;;4192591;28;20051;-69
2022/06/21 03:37:54;;;;;;;0.00;0.00;;;20.60;62.00;;;;;;4192685;28;20052;-69
2022/06/21 03:43:06;;;;;;;0.00;0.00;;;20.60;62.10;;;;;;4190854;28;20060;-68
2022/06/21 03:45:34;;;;;;;0.00;0.00;;;20.60;62.10;;;;;;4192151;28;20139;-68
2022/06/21 03:48:01;;;;;;;0.00;0.00;;;20.60;62.10;;;;;;4192274;28;20053;-69
2022/06/21 03:50:29;;;;;;;0.00;0.00;;;20.60;62.00;;;;;;4159692;28;20504;-69
2022/06/21 03:52:56;;;;;;;0.40;0.40;;;20.60;62.00;;;;;;4158947;28;20076;-69
2022/06/21 03:55:27;;;;;;;0.30;0.30;;;20.60;62.10;;;;;;4159486;28;20072;-68
2022/06/21 03:57:55;;;;;;;0.00;0.00;;;20.60;62.00;;;;;;4158963;28;20135;-68
2022/06/21 04:00:20;;;;;;;1.38;0.85;;;20.60;62.10;;;;;;4159216;28;20134;-68
2022/06/21 04:02:46;;;;;;;0.00;0.00;;;20.60;62.10;;;;;;4186208;28;20099;-68
2022/06/21 04:05:12;;;;;;;0.00;0.00;;;20.60;62.10;;;;;;4169074;28;20499;-67
2022/06/21 04:07:39;;;;;;;0.00;0.00;;;20.60;62.10;;;;;;4192233;28;20102;-67
2022/06/21 04:10:07;;;;;;;0.00;0.00;;;20.60;62.10;;;;;;4192270;28;20048;-67
2022/06/21 04:12:38;;;;;;;0.00;0.00;;;20.50;62.10;;;;;;4192106;28;20079;-68
2022/06/21 04:15:08;;;;;;;0.00;0.00;;;20.60;62.10;;;;;;4191963;28;20446;-69
2022/06/21 04:17:38;;;;;;;1.83;1.73;;;20.50;62.10;;;;;;4192432;28;20064;-68
2022/06/21 04:20:06;;;;;;;0.00;0.00;;;20.50;62.10;;;;;;4174905;28;20128;-68
2022/06/21 04:22:34;;;;;;;0.38;0.38;;;20.50;62.20;;;;;;4175407;28;20480;-68
2022/06/21 04:25:01;;;;;;;0.00;0.00;;;20.50;62.20;;;;;;4175132;28;20052;-68
2022/06/21 04:27:28;;;;;;;0.00;0.00;;;20.50;62.20;;;;;;4175571;28;20041;-68
2022/06/21 04:29:56;;;;;;;0.00;0.00;;;20.50;62.30;;;;;;4174837;28;20396;-68
2022/06/21 04:32:27;;;;;;;0.00;0.00;;;20.50;62.30;;;;;;4174714;28;20049;-67
2022/06/21 04:34:54;;;;;;;;;;;20.50;62.40;;;;;;4177095;28;20484;-67
2022/06/21 04:37:22;;;;;;;0.00;0.00;;;20.50;62.30;;;;;;4178943;28;20035;-68
2022/06/21 04:39:51;;;;;;;0.00;0.00;;;20.50;62.40;;;;;;4178037;28;20055;-67
2022/06/21 04:42:18;;;;;;;0.00;0.00;;;20.50;62.40;;;;;;4177241;28;20079;-68
2022/06/21 04:44:46;;;;;;;0.00;0.00;;;20.50;62.40;;;;;;4175553;28;20047;-68
2022/06/21 04:47:24;;;;;;;0.00;0.00;;;20.50;62.50;;;;;;4174414;28;20049;-67
2022/06/21 04:49:54;;;;;;;0.00;0.00;;;20.40;62.50;;;;;;4175436;28;20059;-68
2022/06/21 04:52:20;;;;;;;0.00;0.00;;;20.40;62.50;;;;;;4176322;28;20179;-67
2022/06/21 04:54:42;;;;;;;0.00;0.00;;;20.40;62.50;;;;;;4177347;28;20072;-68
2022/06/21 04:57:08;;;;;;;0.00;0.00;;;20.40;62.50;;;;;;4177974;28;20384;-68
2022/06/21 04:59:34;;;;;;;0.00;0.00;;;20.50;62.60;;;;;;4191676;28;20048;-67
2022/06/21 05:01:58;;;;;;;0.70;0.55;;;20.50;62.70;;;;;;4193969;28;20048;-68
2022/06/21 05:04:24;;;;;;;0.00;0.00;;;20.40;62.60;;;;;;4192711;28;20814;-69
2022/06/21 05:06:49;;;;;;;0.00;0.00;;;20.50;62.70;;;;;;4194513;28;20152;-68
2022/06/21 05:09:14;;;;;;;0.00;0.00;;;20.50;62.70;;;;;;4194366;28;20049;-68
2022/06/21 05:11:36;;;;;;;0.00;0.00;;;20.50;62.70;;;;;;4194650;28;20055;-69
2022/06/21 05:14:01;;;;;;;0.00;0.00;;;20.50;62.70;;;;;;4194605;28;20184;-69
2022/06/21 05:16:28;;;;;;;0.00;0.00;;;20.50;62.70;;;;;;4144946;28;20141;-69
2022/06/21 05:18:56;;;;;;;0.00;0.00;;;20.50;62.70;;;;;;4145371;28;20068;-69
2022/06/21 05:21:24;;;;;;;0.00;0.00;;;20.60;62.80;;;;;;4177487;28;20403;-68
2022/06/21 05:23:48;;;;;;;0.00;0.00;;;20.60;62.80;;;;;;4177828;28;20068;-68
2022/06/21 05:26:16;;;;;;;0.00;0.00;;;20.60;62.60;;;;;;4177894;28;20048;-71
2022/06/21 05:28:43;;;;;;;0.00;0.00;;;20.60;62.90;;;;;;4176519;28;20506;-69
2022/06/21 05:31:14;;;;;;;0.00;0.00;;;20.70;63.00;;;;;;4177435;28;20044;-71
2022/06/21 05:33:40;;;;;;;0.00;0.00;;;20.70;63.00;;;;;;4177313;28;20049;-70
2022/06/21 05:36:03;;;;;;;0.00;0.00;;;20.70;63.00;;;;;;4177603;28;20055;-70
2022/06/21 05:38:27;;;;;;;0.00;0.00;;;20.70;62.90;;;;;;4172053;28;20099;-69
2022/06/21 05:40:55;;;;;;;0.00;0.00;;;20.70;62.90;;;;;;4175950;28;20411;-70
2022/06/21 05:43:20;;;;;;;0.00;0.00;;;20.70;62.90;;;;;;4177137;28;20095;-68
2022/06/21 05:45:44;;;;;;;0.00;0.00;;;20.70;63.10;;;;;;4177050;28;20476;-69
2022/06/21 05:48:14;;;;;;;8.82;0.60;;;20.70;63.00;;;;;;4177178;28;20045;-69
2022/06/21 05:50:36;;;;;;;0.00;0.00;;;20.70;62.90;;;;;;4177313;28;20059;-69
2022/06/21 05:53:09;;;;;;;0.00;0.00;;;20.80;62.90;;;;;;4178560;28;20048;-68
2022/06/21 05:55:35;;;;;;;0.00;0.00;;;20.80;63.70;;;;;;4182253;28;20407;-69
2022/06/21 05:58:04;;;;;;;0.00;0.00;;;20.70;62.80;;;;;;4159597;28;24489;-68
2022/06/21 06:00:31;;;;;;;0.00;0.00;;;20.70;62.80;;;;;;4191392;28;20139;-67
2022/06/21 06:02:57;;;;;;;0.00;0.00;;;20.70;62.80;;;;;;4193715;28;20122;-69
2022/06/21 06:05:26;;;;;;;0.05;0.05;;;20.80;62.90;;;;;;4193271;28;20165;-68
2022/06/21 06:07:52;;;;;;;0.00;0.00;;;20.80;62.80;;;;;;4191900;28;20052;-69
2022/06/21 06:10:16;;;;;;;42.28;1.42;;;20.80;62.90;;;;;;4191665;28;20059;-68
2022/06/21 06:12:41;;;;;;;0.00;0.00;;;20.80;62.80;;;;;;4181434;28;20106;-68
2022/06/21 06:15:08;;;;;;;1.13;1.13;;;20.80;62.70;;;;;;4160373;28;20127;-68
2022/06/21 06:17:39;;;;;;;0.00;0.00;;;20.80;62.60;;;;;;4160389;28;20041;-69
2022/06/21 06:20:06;;;;;;;0.00;0.00;;;20.80;62.50;;;;;;4160282;28;20050;-70
2022/06/21 06:22:38;;;;;;;0.17;0.15;;;20.90;62.40;;;;;;4160651;28;20068;-69
2022/06/21 06:25:07;;;;;;;0.55;0.55;;;20.90;62.40;;;;;;4160151;28;20481;-70
2022/06/21 06:27:36;;;;;;;0.40;0.40;;;21.00;62.40;;;;;;4160050;28;20056;-68
2022/06/21 06:30:02;;;;;;;0.00;0.00;;;21.00;62.30;;;;;;4160454;28;20119;-68
2022/06/21 06:32:31;;;;;;;0.00;0.00;;;21.10;62.10;;;;;;4159862;28;20140;-69
2022/06/21 06:34:55;;;;;;;0.00;0.00;;;21.10;61.70;;;;;;4160700;28;20602;-66
2022/06/21 06:37:25;;;;;;;0.10;0.10;;;21.10;61.50;;;;;;4173875;28;20098;-68
2022/06/21 06:39:47;;;;;;;0.00;0.00;;;21.20;61.40;;;;;;4171986;28;20048;-70
2022/06/21 06:42:13;;;;;;;0.08;0.08;;;21.20;61.20;;;;;;4166186;28;20057;-70
2022/06/21 06:44:44;;;;;;;0.00;0.00;;;21.30;60.70;;;;;;4161799;28;20057;-67
2022/06/21 06:47:15;;;;;;;0.00;0.00;;;21.30;61.20;;;;;;4181035;28;20064;-70
2022/06/21 06:49:43;;;;;;;3.00;1.15;;;21.30;60.20;;;;;;4172176;28;20862;-70
2022/06/21 06:52:12;;;;;;;0.00;0.00;;;21.40;60.10;;;;;;4171937;28;20132;-69
2022/06/21 06:54:41;;;;;;;0.00;0.00;;;21.40;60.00;;;;;;4164689;28;20110;-69
2022/06/21 06:57:13;;;;;;;1.95;0.90;;;21.50;60.80;;;;;;4163760;28;20055;-69
2022/06/21 06:59:37;;;;;;;0.00;0.00;;;21.50;59.70;;;;;;4159158;28;20049;-68
2022/06/21 07:02:04;;;;;;;0.00;0.00;;;21.60;59.50;;;;;;4167403;28;20049;-69
2022/06/21 07:04:31;;;;;;;0.00;0.00;;;21.70;59.40;;;;;;4166642;28;20049;-68
2022/06/21 07:06:58;;;;;;;0.28;0.28;;;21.70;59.20;;;;;;4167229;28;20511;-69
2022/06/21 07:09:26;;;;;;;0.00;0.00;;;21.80;59.00;;;;;;4166273;28;20479;-69
2022/06/21 07:11:53;;;;;;;0.00;0.00;;;21.90;58.70;;;;;;4163633;28;20079;-70
2022/06/21 07:14:20;;;;;;;0.00;0.00;;;21.90;58.60;;;;;;4168507;28;20052;-69
2022/06/21 07:16:44;;;;;;;0.00;0.00;;;21.90;59.30;;;;;;4159594;28;20099;-70
2022/06/21 07:19:06;;;;;;;0.08;0.08;;;22.00;58.60;;;;;;4170412;28;20628;-69
2022/06/21 07:21:29;;;;;;;0.03;0.03;;;22.00;58.40;;;;;;4157962;28;20052;-69
2022/06/21 07:23:57;;;;;;;8.43;2.28;;;22.10;58.40;;;;;;4157514;28;20120;-69
2022/06/21 07:26:27;;;;;;;0.00;0.00;;;22.10;58.20;;;;;;4156504;28;20103;-69
2022/06/21 07:28:53;;;;;;;0.07;0.07;;;22.20;58.10;;;;;;4158267;28;20051;-70
2022/06/21 07:31:20;;;;;;;0.00;0.00;;;22.20;58.10;;;;;;4156602;28;20292;-69
2022/06/21 07:33:46;;;;;;;0.00;0.00;;;22.20;58.00;;;;;;4166352;28;20537;-70
2022/06/21 07:36:15;;;;;;;0.00;0.00;;;22.20;57.90;;;;;;4157677;28;20053;-69
2022/06/21 07:38:42;;;;;;;0.00;0.00;;;22.20;57.90;;;;;;4158245;28;20118;-70
2022/06/21 07:41:11;;;;;;;3.83;1.65;;;22.30;57.80;;;;;;4163676;28;20064;-68
2022/06/21 07:43:38;;;;;;;0.00;0.00;;;22.30;57.80;;;;;;4157196;28;20049;-69
2022/06/21 07:46:02;;;;;;;0.45;0.45;;;22.30;57.80;;;;;;4167616;28;20052;-70
2022/06/21 07:48:32;;;;;;;0.05;0.05;;;22.30;57.70;;;;;;4169979;28;20464;-70
2022/06/21 07:50:57;;;;;;;0.00;0.00;;;22.30;57.70;;;;;;4169477;28;20069;-70
2022/06/21 07:53:27;;;;;;;0.00;0.00;;;22.30;57.70;;;;;;4162664;28;20045;-70
2022/06/21 07:55:54;;;;;;;0.10;0.10;;;22.30;57.80;;;;;;4160185;28;20045;-69
2022/06/21 07:58:25;;;;;;;0.00;0.00;;;22.30;57.60;;;;;;4164110;28;20051;-70
2022/06/21 08:09:14;;;;;;;0.00;0.00;;;22.30;57.60;;;;;;4164317;28;20439;-68
2022/06/21 08:11:40;;;;;;;0.00;0.00;;;22.30;57.70;;;;;;4166332;28;20168;-68
2022/06/21 08:14:04;;;;;;;0.00;0.00;;;22.30;57.60;;;;;;4164918;28;20056;-67
2022/06/21 08:16:35;;;;;;;0.00;0.00;;;22.30;57.70;;;;;;4167343;28;20403;-68
2022/06/21 08:19:06;;;;;;;0.00;0.00;;;22.20;57.60;;;;;;4167064;28;20126;-67
2022/06/21 08:21:35;;;;;;;0.00;0.00;;;22.20;57.60;;;;;;4195752;28;20531;-67
2022/06/21 08:24:04;;;;;;;0.00;0.00;;;22.20;57.70;;;;;;4166126;28;20152;-67
2022/06/21 08:26:31;;;;;;;0.00;0.00;;;22.20;57.70;;;;;;4169753;28;20099;-68
2022/06/21 08:29:00;;;;;;;0.00;0.00;;;22.20;57.80;;;;;;4170410;28;20053;-64
2022/06/21 08:31:31;;;;;;;0.10;0.10;;;22.30;57.80;;;;;;4168507;28;20049;-64
2022/06/21 08:33:58;;;;;;;0.00;0.00;;;22.30;57.80;;;;;;4159955;28;20396;-64
2022/06/21 08:36:24;;;;;;;6.38;1.98;;;22.30;57.70;;;;;;4159624;28;20492;-64
2022/06/21 08:38:52;;;;;;;0.00;0.00;;;22.30;57.70;;;;;;4158830;28;20061;-62
2022/06/21 08:41:52;;;;;;;0.00;0.00;;;22.30;57.60;;;;;;4175354;28;20053;-62
2022/06/21 08:44:36;;;;;;;0.40;0.40;;;22.30;57.50;;;;;;4167465;28;20135;-62
2022/06/21 08:47:31;;;;;;;0.00;0.00;;;22.40;57.50;;;;;;4166490;28;20049;-62
2022/06/21 08:50:41;;;;;;;0.00;0.00;;;22.40;57.40;;;;;;4163440;28;20471;-64
2022/06/21 08:53:08;;;;;;;;;;;22.40;58.00;;;;;;4159937;28;20049;-62
2022/06/21 08:55:38;;;;;;;0.00;0.00;;;22.50;57.30;;;;;;4159780;28;19921;-63
2022/06/21 08:58:13;;;;;;;0.00;0.00;;;22.40;57.30;;;;;;4160423;28;20144;-62
2022/06/21 09:00:41;;;;;;;0.00;0.00;;;22.50;57.30;;;;;;4158497;28;20053;-66
2022/06/21 09:03:26;;;;;;;0.00;0.00;;;22.40;57.20;;;;;;4163699;28;20138;-66
2022/06/21 09:06:03;;;;;;;0.00;0.00;;;22.40;57.20;;;;;;4158917;28;20058;-67
2022/06/21 09:09:01;;;;;;;0.00;0.00;;;22.40;57.20;;;;;;4176176;28;20491;-67
2022/06/21 09:11:32;;;;;;;0.00;0.00;;;22.40;57.60;;;;;;4165634;28;20538;-67
2022/06/21 09:14:18;;;;;;;0.65;0.65;;;22.40;56.90;;;;;;4174683;28;20057;-67
2022/06/21 09:16:53;;;;;;;0.00;0.00;;;22.50;56.90;;;;;;4159486;28;20053;-69
2022/06/21 09:19:32;;;;;;;0.00;0.00;;;22.40;56.90;;;;;;4168402;28;20496;-68
2022/06/21 09:22:04;;;;;;;0.00;0.00;;;22.40;56.90;;;;;;4168111;28;20041;-68
2022/06/21 09:24:32;;;;;;;;;;;22.40;57.00;;;;;;4157215;28;20504;-68
2022/06/21 09:27:01;;;;;;;0.10;0.10;;;22.40;57.10;;;;;;4165437;28;20414;-68
2022/06/21 09:29:30;;;;;;;0.00;0.00;;;22.30;57.10;;;;;;4156745;28;20091;-68
2022/06/21 09:32:07;;;;;;;0.00;0.00;;;22.30;57.90;;;;;;4172165;28;20052;-69
2022/06/21 09:34:38;;;;;;;0.20;0.20;;;22.40;57.20;;;;;;4163880;28;20060;-68
2022/06/21 09:37:11;;;;;;;0.00;0.00;;;22.40;57.20;;;;;;4166874;28;20053;-68
2022/06/21 09:39:40;;;;;;;0.00;0.00;;;22.40;57.10;;;;;;4174152;28;20068;-68
2022/06/21 09:42:11;;;;;;;0.00;0.00;;;22.40;57.00;;;;;;4161801;28;20062;-68
2022/06/21 09:44:42;;;;;;;0.00;0.00;;;22.50;57.00;;;;;;4172338;28;20056;-68
2022/06/21 09:47:16;;;;;;;0.00;0.00;;;22.50;56.90;;;;;;4164417;28;20049;-68
2022/06/21 09:49:47;;;;;;;0.08;0.08;;;22.50;56.80;;;;;;4173886;28;20782;-68
2022/06/21 09:52:23;;;;;;;0.00;0.00;;;22.60;56.70;;;;;;4173930;28;20053;-69
2022/06/21 09:54:56;;;;;;;0.15;0.15;;;22.60;56.60;;;;;;4170111;28;20566;-68
2022/06/21 09:57:28;;;;;;;0.20;0.20;;;22.60;56.60;;;;;;4173086;28;20057;-68
2022/06/21 09:59:55;;;;;;;0.00;0.00;;;22.60;56.60;;;;;;4159469;28;20060;-67
2022/06/21 10:02:27;;;;;;;1.77;1.67;;;22.60;56.60;;;;;;4165981;28;20054;-69
2022/06/21 10:04:55;;;;;;;;;;;22.60;56.60;;;;;;4171213;28;20049;-68
2022/06/21 10:07:27;;;;;;;0.00;0.00;;;22.60;56.40;;;;;;4192973;28;20295;-69
2022/06/21 10:10:01;;;;;;;0.00;0.00;;;22.60;56.20;;;;;;4163320;28;20042;-63
2022/06/21 10:12:33;;;;;;;2.45;0.52;;;22.60;56.40;;;;;;4172483;28;20048;-63
2022/06/21 10:15:23;;;;;;;0.10;0.10;;;22.60;56.40;;;;;;4146746;28;20089;-67
2022/06/21 10:18:09;;;;;;;0.00;0.00;;;22.60;56.30;;;;;;4157881;28;20053;-68
2022/06/21 10:20:59;;;;;;;0.00;0.00;;;22.60;56.30;;;;;;4152537;28;20045;-68
2022/06/21 10:23:47;;;;;;;0.00;0.00;;;22.70;56.30;;;;;;4152776;28;20523;-68
2022/06/21 10:26:44;;;;;;;0.00;0.00;;;22.70;56.30;;;;;;4159742;28;20050;-69
2022/06/21 10:29:33;;;;;;;0.15;0.15;;;22.60;56.30;;;;;;4159061;28;20122;-68
2022/06/21 10:32:12;;;;;;;0.00;0.00;;;22.60;56.30;;;;;;4158839;28;20056;-69
2022/06/21 10:35:10;;;;;;;0.00;0.00;;;22.70;56.40;;;;;;4164491;28;20487;-68
2022/06/21 10:37:42;;;;;;;0.00;0.00;;;22.70;56.30;;;;;;4174104;28;20526;-68
2022/06/21 10:40:43;;;;;;;0.00;0.00;;;22.70;56.20;;;;;;4171984;28;20063;-67
2022/06/21 10:43:41;;;;;;;0.00;0.00;;;22.70;56.20;;;;;;4131688;28;20036;-69
2022/06/21 10:46:10;;;;;;;0.00;0.00;;;22.80;56.00;;;;;;4156547;28;20068;-68
2022/06/21 10:48:58;;;;;;;0.00;0.00;;;22.80;55.90;;;;;;4160366;28;20052;-69
2022/06/21 10:51:31;;;;;;;0.00;0.00;;;22.80;56.50;;;;;;4160578;28;20118;-68
2022/06/21 10:54:16;;;;;;;0.00;0.00;;;22.80;55.70;;;;;;4193508;28;20131;-69
2022/06/21 11:03:02;;;;;;;0.00;0.00;;;22.80;56.30;;;;;;4186264;28;20079;-69
2022/06/21 11:05:33;;;;;;;0.00;0.00;;;22.80;55.70;;;;;;4157827;28;20057;-69
2022/06/21 11:08:03;;;;;;;0.00;0.00;;;22.80;55.90;;;;;;4171231;28;20056;-68
2022/06/21 11:10:35;;;;;;;0.00;0.00;;;22.80;55.90;;;;;;4162698;28;20053;-69
2022/06/21 11:13:06;;;;;;;0.00;0.00;;;22.80;55.90;;;;;;4157540;28;20056;-69
2022/06/21 11:15:45;;;;;;;0.10;0.10;;;22.80;55.90;;;;;;4184325;28;20059;-67
2022/06/21 11:18:19;;;;;;;0.15;0.15;;;22.80;55.80;;;;;;4157609;28;20612;-68
2022/06/21 11:20:52;;;;;;;0.40;0.40;;;22.90;55.80;;;;;;4170013;28;20130;-69
2022/06/21 11:23:25;;;;;;;0.00;0.00;;;22.90;55.70;;;;;;4169770;28;20045;-68
2022/06/21 11:25:55;;;;;;;0.30;0.10;;;22.90;55.70;;;;;;4173210;28;20052;-68
2022/06/21 11:28:32;;;;;;;0.28;0.28;;;22.90;55.60;;;;;;4167385;28;20500;-67
2022/06/21 11:31:00;;;;;;;2.65;0.77;;;23.00;55.60;;;;;;4195847;28;20832;-68
2022/06/21 11:33:31;;;;;;;0.00;0.00;;;23.00;55.60;;;;;;4167809;28;20045;-68
2022/06/21 11:36:03;;;;;;;0.30;0.30;;;23.00;55.60;;;;;;4172874;28;20143;-68
2022/06/21 11:38:38;;;;;;;0.00;0.00;;;23.00;55.50;;;;;;4173023;28;20551;-68
2022/06/21 11:41:07;;;;;;;0.00;0.00;;;23.10;55.60;;;;;;4158058;28;20048;-68
2022/06/21 11:43:51;;;;;;;0.00;0.00;;;23.10;55.60;;;;;;4157413;28;20064;-68
2022/06/21 11:46:21;;;;;;;0.00;0.00;;;23.10;55.60;;;;;;4155452;28;20464;-69
2022/06/21 11:49:12;;;;;;;0.00;0.00;;;23.10;55.40;;;;;;4160922;28;20593;-68
2022/06/21 11:51:43;;;;;;;;;;;23.10;55.30;;;;;;4156759;28;20049;-70
2022/06/21 11:54:11;;;;;;;0.00;0.00;;;23.10;55.20;;;;;;4157313;28;19960;-67
2022/06/21 11:56:44;;;;;;;0.32;0.30;;;23.10;55.10;;;;;;4162959;28;20365;-68
2022/06/21 11:59:15;;;;;;;0.00;0.00;;;23.10;55.10;;;;;;4157326;28;20073;-68
2022/06/21 12:01:44;;;;;;;0.00;0.00;;;23.20;55.20;;;;;;4161205;28;20136;-68
2022/06/21 12:04:21;;;;;;;0.00;0.00;;;23.20;55.00;;;;;;4156789;28;20057;-68
2022/06/21 12:06:49;;;;;;;0.10;0.10;;;23.20;55.00;;;;;;4167773;28;20127;-68
2022/06/21 12:09:21;;;;;;;0.30;0.30;;;23.20;54.90;;;;;;4171975;28;20395;-67
2022/06/21 12:11:59;;;;;;;0.10;0.10;;;23.20;54.80;;;;;;4157344;28;20103;-67
2022/06/21 12:14:36;;;;;;;0.00;0.00;;;23.30;54.80;;;;;;4167099;28;20048;-67
2022/06/21 12:17:04;;;;;;;0.00;0.00;;;23.30;54.80;;;;;;4164057;28;20045;-67
2022/06/21 12:19:33;;;;;;;3.60;0.90;;;23.30;54.80;;;;;;4160923;28;20566;-68
2022/06/21 12:21:58;;;;;;;0.00;0.00;;;23.40;54.80;;;;;;4164095;28;20536;-67
2022/06/21 12:24:24;;;;;;;0.00;0.00;;;23.40;54.70;;;;;;4169356;28;20484;-68
2022/06/21 12:26:49;;;;;;;0.00;0.00;;;23.40;54.60;;;;;;4164352;28;20069;-67
2022/06/21 12:29:15;;;;;;;0.00;0.00;;;23.40;54.50;;;;;;4163201;28;20084;-67
2022/06/21 12:31:41;;;;;;;0.00;0.00;;;23.50;54.40;;;;;;4157146;28;20057;-69
2022/06/21 12:34:06;;;;;;;0.00;0.00;;;23.40;54.20;;;;;;4155257;28;20559;-68
2022/06/21 12:36:41;;;;;;;0.00;0.00;;;23.50;54.30;;;;;;4166268;28;20094;-68
2022/06/21 12:39:14;;;;;;;0.00;0.00;;;23.50;54.10;;;;;;4162552;28;20472;-68
2022/06/21 12:41:44;;;;;;;0.00;0.00;;;23.50;54.00;;;;;;4167299;28;20049;-69
2022/06/21 12:44:18;;;;;;;0.00;0.00;;;23.60;53.90;;;;;;4166567;28;20608;-68
2022/06/21 12:46:48;;;;;;;0.00;0.00;;;23.60;53.90;;;;;;4165053;28;20676;-69
2022/06/21 12:49:32;;;;;;;0.00;0.00;;;23.60;53.90;;;;;;4157092;28;20105;-69
2022/06/21 12:51:59;;;;;;;0.00;0.00;;;23.60;53.80;;;;;;4154722;28;20139;-68
2022/06/21 12:54:55;;;;;;;0.00;0.00;;;23.60;53.80;;;;;;4156549;28;20084;-67
2022/06/21 12:57:56;;;;;;;0.00;0.00;;;23.60;53.70;;;;;;4144847;28;20052;-68
2022/06/21 13:00:35;;;;;;;0.00;0.00;;;23.70;53.70;;;;;;4159959;28;20045;-68
2022/06/21 13:03:39;;;;;;;0.00;0.00;;;23.70;53.70;;;;;;4168975;28;20053;-64
2022/06/21 13:06:41;;;;;;;0.03;0.03;;;23.80;53.60;;;;;;4191788;28;20493;-64
2022/06/21 13:09:30;;;;;;;0.00;0.00;;;23.70;53.50;;;;;;4183650;28;20514;-64
2022/06/21 13:12:11;;;;;;;0.00;0.00;;;23.80;53.40;;;;;;4206350;27;20044;-64
2022/06/21 13:15:08;;;;;;;0.00;0.00;;;23.80;54.20;;;;;;4191891;28;20059;-64
2022/06/21 13:17:55;;;;;;;0.68;0.68;;;23.80;53.50;;;;;;4191271;28;20093;-66
2022/06/21 13:20:26;;;;;;;0.08;0.08;;;23.80;53.50;;;;;;4193616;28;20499;-64